createdAt,value
2023-05-05T00:01:33.112Z,6.70
2023-05-05T00:04:00.420Z,6.65
2023-05-05T00:06:31.514Z,5.95
2023-05-05T00:08:58.588Z,6.32
2023-05-05T00:11:26.103Z,6.43
2023-05-05T00:13:53.285Z,6.10
2023-05-05T00:16:20.735Z,6.00
2023-05-05T00:18:47.962Z,6.50
2023-05-05T00:21:15.663Z,6.40
2023-05-05T00:23:42.767Z,6.32
2023-05-05T00:26:09.895Z,6.57
2023-05-05T00:28:37.013Z,6.40
2023-05-05T00:31:04.247Z,6.65
2023-05-05T00:33:31.481Z,7.05
2023-05-05T00:35:58.873Z,6.70
2023-05-05T00:38:26.259Z,7.20
2023-05-05T00:40:53.358Z,6.18
2023-05-05T00:43:20.485Z,6.43
2023-05-05T00:45:48.149Z,7.07
2023-05-05T00:48:16.922Z,6.32
2023-05-05T00:50:44.934Z,6.63
2023-05-05T00:53:13.079Z,6.80
2023-05-05T00:55:40.538Z,5.93
2023-05-05T00:58:07.901Z,6.65
2023-05-05T01:00:35.190Z,6.80
2023-05-05T01:03:03.247Z,7.00
2023-05-05T01:05:34.819Z,6.97
2023-05-05T01:08:02.849Z,6.43
2023-05-05T01:10:30.111Z,6.70
2023-05-05T01:13:16.057Z,6.75
2023-05-05T01:15:47.154Z,6.57
2023-05-05T01:18:21.256Z,6.80
2023-05-05T01:20:58.296Z,6.70
2023-05-05T01:23:45.664Z,6.18
2023-05-05T01:26:48.189Z,6.20
2023-05-05T01:29:30.872Z,6.13
2023-05-05T01:32:02.074Z,6.22
2023-05-05T01:34:33.372Z,6.32
2023-05-05T01:37:10.870Z,6.35
2023-05-05T01:39:38.163Z,6.68
2023-05-05T01:42:07.264Z,5.88
2023-05-05T01:44:37.099Z,6.70
2023-05-05T01:47:04.939Z,6.75
2023-05-05T01:49:33.622Z,6.20
2023-05-05T01:52:03.722Z,7.25
2023-05-05T01:54:32.781Z,6.68
2023-05-05T01:57:00.293Z,6.88
2023-05-05T01:59:28.670Z,7.20
2023-05-05T02:01:56.608Z,7.15
2023-05-05T02:04:24.257Z,7.18
2023-05-05T02:06:53.076Z,7.13
2023-05-05T02:09:21.008Z,7.10
2023-05-05T02:11:48.249Z,6.70
2023-05-05T02:14:17.536Z,6.72
2023-05-05T02:20:27.984Z,6.57
2023-05-05T02:22:55.330Z,7.38
2023-05-05T02:25:22.546Z,7.47
2023-05-05T02:27:50.717Z,6.32
2023-05-05T02:30:19.637Z,6.60
2023-05-05T02:32:49.658Z,6.60
2023-05-05T02:35:21.892Z,6.32
2023-05-05T02:37:51.419Z,6.97
2023-05-05T02:40:20.678Z,6.30
2023-05-05T02:42:49.167Z,7.10
2023-05-05T02:45:18.029Z,5.90
2023-05-05T02:47:45.279Z,6.05
2023-05-05T02:50:12.822Z,6.35
2023-05-05T02:52:40.518Z,6.30
2023-05-05T02:55:08.242Z,6.57
2023-05-05T02:57:35.413Z,5.47
2023-05-05T03:00:06.667Z,6.45
2023-05-05T03:02:44.829Z,6.65
2023-05-05T03:05:13.538Z,6.28
2023-05-05T03:07:49.953Z,6.78
2023-05-05T03:10:18.708Z,6.07
2023-05-05T03:12:56.489Z,5.60
2023-05-05T03:15:32.607Z,5.57
2023-05-05T03:18:00.733Z,5.47
2023-05-05T03:20:28.048Z,5.50
2023-05-05T03:22:55.509Z,5.60
2023-05-05T03:25:22.663Z,5.40
2023-05-05T03:27:49.822Z,5.28
2023-05-05T03:30:20.097Z,5.20
2023-05-05T03:32:47.258Z,5.55
2023-05-05T03:35:14.425Z,5.18
2023-05-05T03:37:41.715Z,5.10
2023-05-05T03:40:09.533Z,5.78
2023-05-05T03:42:36.753Z,9.52
2023-05-05T03:45:03.991Z,6.05
2023-05-05T03:47:31.300Z,5.30
2023-05-05T03:49:58.462Z,5.78
2023-05-05T03:52:25.668Z,5.70
2023-05-05T03:54:54.163Z,5.20
2023-05-05T03:57:21.245Z,4.82
2023-05-05T03:59:48.331Z,5.03
2023-05-05T04:02:16.504Z,4.95
2023-05-05T04:04:45.602Z,5.07
2023-05-05T04:07:12.726Z,5.20
2023-05-05T04:09:44.343Z,5.28
2023-05-05T04:12:11.928Z,5.20
2023-05-05T04:14:39.086Z,5.57
2023-05-05T04:17:09.273Z,5.13
2023-05-05T04:19:36.377Z,5.20
2023-05-05T04:22:03.552Z,5.30
2023-05-05T04:24:30.908Z,5.32
2023-05-05T04:26:58.090Z,5.32
2023-05-05T04:29:25.232Z,5.07
2023-05-05T04:31:53.920Z,5.05
2023-05-05T04:34:22.329Z,4.93
2023-05-05T04:36:49.446Z,4.68
2023-05-05T04:39:16.616Z,5.22
2023-05-05T04:41:43.714Z,5.72
2023-05-05T04:44:10.819Z,5.53
2023-05-05T04:46:37.930Z,5.10
2023-05-05T04:49:05.898Z,5.28
2023-05-05T04:51:33.017Z,4.97
2023-05-05T04:54:00.162Z,5.22
2023-05-05T04:56:27.356Z,5.00
2023-05-05T04:58:54.427Z,5.22
2023-05-05T05:01:21.628Z,4.65
2023-05-05T05:03:48.850Z,5.03
2023-05-05T05:06:15.981Z,4.15
2023-05-05T05:08:43.300Z,6.78
2023-05-05T05:11:10.538Z,5.45
2023-05-05T05:13:37.689Z,6.43
2023-05-05T05:16:04.889Z,5.10
2023-05-05T05:18:32.067Z,4.90
2023-05-05T05:20:59.226Z,4.88
2023-05-05T05:23:26.362Z,4.40
2023-05-05T05:25:53.627Z,4.18
2023-05-05T05:28:20.705Z,4.15
2023-05-05T05:30:47.772Z,4.13
2023-05-05T05:33:15.002Z,4.05
2023-05-05T05:35:42.157Z,3.95
2023-05-05T05:38:09.522Z,3.83
2023-05-05T05:40:37.067Z,3.90
2023-05-05T05:43:04.186Z,3.92
2023-05-05T05:45:31.378Z,4.35
2023-05-05T05:47:58.539Z,3.72
2023-05-05T05:50:28.540Z,4.13
2023-05-05T05:52:55.979Z,4.63
2023-05-05T05:55:23.108Z,4.20
2023-05-05T05:57:50.230Z,3.88
2023-05-05T06:00:17.437Z,4.15
2023-05-05T06:02:44.679Z,3.70
2023-05-05T06:05:13.041Z,3.95
2023-05-05T06:07:40.206Z,3.95
2023-05-05T06:10:22.900Z,4.13
2023-05-05T06:12:53.587Z,4.03
2023-05-05T06:15:20.809Z,3.90
2023-05-05T06:17:48.044Z,3.42
2023-05-05T06:20:15.311Z,3.45
2023-05-05T06:22:42.525Z,3.40
2023-05-05T06:25:09.736Z,3.75
2023-05-05T06:27:36.878Z,3.55
2023-05-05T06:30:04.073Z,3.33
2023-05-05T06:32:31.303Z,3.30
2023-05-05T06:34:58.514Z,3.80
2023-05-05T06:37:25.654Z,4.15
2023-05-05T06:39:52.717Z,3.85
2023-05-05T06:42:19.796Z,3.15
2023-05-05T06:44:46.884Z,3.40
2023-05-05T06:47:14.042Z,3.38
2023-05-05T06:49:41.119Z,3.60
2023-05-05T06:52:08.414Z,3.42
2023-05-05T06:54:35.547Z,3.47
2023-05-05T06:57:02.705Z,3.72
2023-05-05T06:59:29.850Z,3.70
2023-05-05T07:01:57.055Z,3.85
2023-05-05T07:04:24.151Z,3.45
2023-05-05T07:06:51.297Z,3.30
2023-05-05T07:09:18.732Z,3.60
2023-05-05T07:11:45.824Z,3.70
2023-05-05T07:14:12.939Z,3.10
2023-05-05T07:16:40.055Z,3.22
2023-05-05T07:19:07.409Z,3.45
2023-05-05T07:21:35.079Z,3.45
2023-05-05T07:24:03.533Z,3.78
2023-05-05T07:26:30.952Z,3.45
2023-05-05T07:28:58.963Z,3.38
2023-05-05T07:31:26.913Z,3.20
2023-05-05T07:33:54.145Z,2.72
2023-05-05T07:36:21.360Z,3.70
2023-05-05T07:38:48.529Z,3.63
2023-05-05T07:41:15.820Z,3.85
2023-05-05T07:43:44.406Z,3.55
2023-05-05T07:46:12.083Z,3.70
2023-05-05T07:48:41.662Z,3.53
2023-05-05T07:51:09.413Z,3.80
2023-05-05T07:53:36.656Z,4.13
2023-05-05T07:56:04.043Z,3.92
2023-05-05T07:58:31.234Z,3.03
2023-05-05T08:00:58.452Z,3.40
2023-05-05T08:03:25.768Z,3.47
2023-05-05T08:05:56.503Z,3.30
2023-05-05T08:08:26.948Z,3.85
2023-05-05T08:10:54.556Z,3.40
2023-05-05T08:13:21.683Z,3.50
2023-05-05T08:15:48.890Z,3.47
2023-05-05T08:18:16.101Z,3.50
2023-05-05T08:20:43.244Z,3.50
2023-05-05T08:23:10.335Z,3.40
2023-05-05T08:25:37.485Z,3.90
2023-05-05T08:28:04.646Z,3.25
2023-05-05T08:30:31.837Z,3.60
2023-05-05T08:32:59.285Z,3.40
2023-05-05T08:35:26.475Z,3.13
2023-05-05T08:37:53.590Z,3.40
2023-05-05T08:40:25.096Z,3.40
2023-05-05T08:42:52.271Z,3.63
2023-05-05T08:45:19.363Z,3.42
2023-05-05T08:47:46.586Z,3.53
2023-05-05T08:50:14.360Z,3.63
2023-05-05T08:52:44.318Z,3.65
2023-05-05T08:55:17.649Z,3.33
2023-05-05T08:57:47.000Z,2.95
2023-05-05T09:00:14.867Z,3.30
2023-05-05T09:02:43.272Z,2.97
2023-05-05T09:05:10.670Z,3.25
2023-05-05T09:07:39.005Z,3.50
2023-05-05T09:10:06.435Z,2.95
2023-05-05T09:12:33.610Z,3.20
2023-05-05T09:15:03.617Z,3.17
2023-05-05T09:17:31.703Z,3.13
2023-05-05T09:20:08.594Z,3.63
2023-05-05T09:22:42.798Z,3.70
2023-05-05T09:25:11.973Z,3.30
2023-05-05T09:27:41.082Z,3.20
2023-05-05T09:30:08.926Z,3.35
2023-05-05T09:32:46.208Z,3.25
2023-05-05T09:35:14.238Z,3.15
2023-05-05T09:37:41.649Z,3.30
2023-05-05T09:40:09.532Z,3.55
2023-05-05T09:42:37.860Z,3.70
2023-05-05T09:45:25.609Z,3.40
2023-05-05T09:47:56.707Z,3.95
2023-05-05T09:50:30.207Z,3.58
2023-05-05T09:52:58.554Z,3.45
2023-05-05T09:55:25.881Z,3.70
2023-05-05T09:57:53.017Z,3.45
2023-05-05T10:00:20.687Z,3.80
2023-05-05T10:02:48.137Z,3.38
2023-05-05T10:05:16.373Z,4.15
2023-05-05T10:07:45.167Z,3.80
2023-05-05T10:10:13.882Z,3.95
2023-05-05T10:12:42.177Z,3.25
2023-05-05T10:15:10.466Z,3.60
2023-05-05T10:17:39.226Z,3.67
2023-05-05T10:20:08.234Z,3.03
2023-05-05T10:22:35.896Z,3.28
2023-05-05T10:25:04.458Z,3.80
2023-05-05T10:27:35.412Z,3.50
2023-05-05T10:30:06.939Z,2.95
2023-05-05T10:35:17.215Z,3.58
2023-05-05T10:37:45.297Z,3.28
2023-05-05T10:40:12.980Z,3.95
2023-05-05T10:42:40.370Z,3.10
2023-05-05T10:45:07.974Z,2.28
2023-05-05T10:47:36.315Z,3.00
2023-05-05T10:50:16.361Z,2.70
2023-05-05T10:52:43.571Z,2.72
2023-05-05T10:55:19.644Z,2.80
2023-05-05T10:57:46.869Z,2.35
2023-05-05T11:00:34.048Z,2.35
2023-05-05T11:03:19.769Z,2.05
2023-05-05T11:06:08.520Z,2.33
2023-05-05T11:08:36.385Z,2.05
2023-05-05T11:11:04.085Z,2.00
2023-05-05T11:13:31.408Z,1.13
2023-05-05T11:15:59.395Z,1.60
2023-05-05T11:18:35.710Z,1.70
2023-05-05T11:21:16.273Z,1.77
2023-05-05T11:23:46.243Z,1.77
2023-05-05T11:26:14.072Z,1.70
2023-05-05T11:28:56.439Z,2.00
2023-05-05T11:31:23.698Z,1.67
2023-05-05T11:33:51.038Z,1.70
2023-05-05T11:36:19.135Z,1.90
2023-05-05T11:38:55.820Z,1.42
2023-05-05T11:41:28.791Z,1.70
2023-05-05T11:44:11.016Z,1.83
2023-05-05T11:46:41.319Z,1.30
2023-05-05T11:49:09.292Z,1.70
2023-05-05T11:51:36.560Z,1.40
2023-05-05T11:54:03.896Z,1.80
2023-05-05T11:56:31.046Z,1.73
2023-05-05T11:59:11.300Z,1.70
2023-05-05T12:01:41.651Z,1.80
2023-05-05T12:04:09.369Z,1.70
2023-05-05T12:06:36.742Z,1.80
2023-05-05T12:09:04.426Z,2.42
2023-05-05T12:11:31.688Z,2.60
2023-05-05T12:14:09.407Z,3.03
2023-05-05T12:16:36.709Z,2.50
2023-05-05T12:19:05.815Z,2.80
2023-05-05T12:21:33.010Z,2.90
2023-05-05T12:24:00.718Z,2.30
2023-05-05T12:26:28.994Z,2.10
2023-05-05T12:28:56.624Z,1.52
2023-05-05T12:31:23.775Z,1.20
2023-05-05T12:33:51.152Z,1.70
2023-05-05T12:36:18.460Z,1.60
2023-05-05T12:38:45.810Z,1.90
2023-05-05T12:41:18.652Z,1.10
2023-05-05T12:43:47.467Z,1.60
2023-05-05T12:46:15.077Z,1.25
2023-05-05T12:48:47.911Z,1.30
2023-05-05T12:51:16.915Z,1.58
2023-05-05T12:53:44.516Z,1.60
2023-05-05T12:56:30.364Z,1.63
2023-05-05T12:58:57.966Z,1.02
2023-05-05T13:01:25.204Z,1.60
2023-05-05T13:04:11.863Z,1.65
2023-05-05T13:06:43.096Z,1.27
2023-05-05T13:09:22.962Z,1.33
2023-05-05T13:11:50.097Z,1.27
2023-05-05T13:14:17.195Z,1.20
2023-05-05T13:16:44.351Z,1.13
2023-05-05T13:19:11.491Z,1.20
2023-05-05T13:21:38.653Z,0.98
2023-05-05T13:24:21.258Z,1.10
2023-05-05T13:26:50.709Z,1.50
2023-05-05T13:29:18.056Z,1.30
2023-05-05T13:31:45.803Z,1.30
2023-05-05T13:34:13.117Z,1.08
2023-05-05T13:36:40.324Z,1.20
2023-05-05T13:39:07.412Z,1.08
2023-05-05T13:41:34.553Z,1.50
2023-05-05T13:44:01.683Z,1.35
2023-05-05T13:46:28.867Z,1.20
2023-05-05T13:48:56.810Z,1.30
2023-05-05T13:51:24.097Z,1.00
2023-05-05T13:53:51.505Z,1.08
2023-05-05T13:56:19.176Z,1.25
2023-05-05T13:58:46.380Z,1.20
2023-05-05T14:01:13.594Z,1.10
2023-05-05T14:03:40.871Z,1.00
2023-05-05T14:06:09.078Z,1.05
2023-05-05T14:08:36.495Z,1.50
2023-05-05T14:11:03.697Z,1.30
2023-05-05T14:13:31.240Z,1.30
2023-05-05T14:15:58.420Z,1.10
2023-05-05T14:18:26.019Z,1.38
2023-05-05T14:20:53.201Z,1.73
2023-05-05T14:23:20.362Z,1.05
2023-05-05T14:25:47.670Z,1.25
2023-05-05T14:28:14.891Z,2.13
2023-05-05T14:30:42.069Z,1.50
2023-05-05T14:33:09.216Z,1.30
2023-05-05T14:35:36.546Z,1.40
2023-05-05T14:38:03.701Z,1.10
2023-05-05T14:40:31.211Z,1.73
2023-05-05T14:42:58.380Z,1.30
2023-05-05T14:45:26.451Z,1.45
2023-05-05T14:47:53.716Z,1.40
2023-05-05T14:50:20.951Z,2.03
2023-05-05T14:52:48.013Z,1.67
2023-05-05T14:55:15.150Z,1.85
2023-05-05T14:57:42.366Z,1.50
2023-05-05T15:00:10.927Z,1.50
2023-05-05T15:02:38.114Z,1.35
2023-05-05T15:05:05.448Z,1.52
2023-05-05T15:07:32.569Z,1.92
2023-05-05T15:09:59.760Z,1.20
2023-05-05T15:12:26.961Z,1.23
2023-05-05T15:14:55.363Z,1.30
2023-05-05T15:17:22.617Z,1.48
2023-05-05T15:19:49.729Z,1.63
2023-05-05T15:22:16.903Z,1.50
2023-05-05T15:24:43.964Z,1.48
2023-05-05T15:27:11.095Z,1.90
2023-05-05T15:29:38.233Z,1.77
2023-05-05T15:32:05.659Z,1.60
2023-05-05T15:34:32.916Z,1.55
2023-05-05T15:37:00.139Z,1.60
2023-05-05T15:39:27.280Z,1.65
2023-05-05T15:41:54.446Z,1.67
2023-05-05T15:44:21.528Z,1.55
2023-05-05T15:46:50.473Z,1.33
2023-05-05T15:49:17.883Z,2.03
2023-05-05T15:51:45.043Z,1.35
2023-05-05T15:54:12.127Z,1.63
2023-05-05T15:56:39.313Z,2.40
2023-05-05T15:59:06.457Z,1.90
2023-05-05T16:01:33.655Z,1.38
2023-05-05T16:04:01.284Z,1.73
2023-05-05T16:06:28.875Z,1.50
2023-05-05T16:08:58.400Z,1.45
2023-05-05T16:11:26.163Z,1.58
2023-05-05T16:13:53.626Z,1.70
2023-05-05T16:16:20.848Z,1.40
2023-05-05T16:18:48.129Z,4.53
2023-05-05T16:21:15.344Z,2.70
2023-05-05T16:23:42.518Z,2.70
2023-05-05T16:26:09.696Z,2.95
2023-05-05T16:28:37.569Z,2.35
2023-05-05T16:31:04.930Z,1.52
2023-05-05T16:33:32.168Z,1.65
2023-05-05T16:35:59.313Z,2.00
2023-05-05T16:38:26.460Z,2.00
2023-05-05T16:40:53.624Z,2.22
2023-05-05T16:43:20.748Z,4.10
2023-05-05T16:45:48.059Z,6.95
2023-05-05T16:48:17.512Z,5.55
2023-05-05T16:51:05.541Z,3.45
2023-05-05T16:53:33.678Z,2.80
2023-05-05T16:56:00.779Z,2.53
2023-05-05T16:58:28.207Z,2.28
2023-05-05T17:00:55.376Z,2.40
2023-05-05T17:03:22.735Z,2.40
2023-05-05T17:05:50.452Z,2.80
2023-05-05T17:08:17.843Z,2.47
2023-05-05T17:10:45.692Z,4.15
2023-05-05T17:13:13.412Z,3.78
2023-05-05T17:15:40.972Z,3.75
2023-05-05T17:18:08.902Z,5.07
2023-05-05T17:20:36.362Z,8.50
2023-05-05T17:23:03.731Z,5.20
2023-05-05T17:25:30.985Z,5.57
2023-05-05T17:27:58.195Z,3.55
2023-05-05T17:30:25.586Z,3.47
2023-05-05T17:32:52.828Z,3.83
2023-05-05T17:35:20.193Z,3.55
2023-05-05T17:37:47.428Z,2.97
2023-05-05T17:40:14.571Z,3.30
2023-05-05T17:42:41.756Z,3.22
2023-05-05T17:45:09.320Z,3.42
2023-05-05T17:47:36.703Z,3.58
2023-05-05T17:50:04.040Z,3.22
2023-05-05T17:52:31.256Z,2.40
2023-05-05T17:54:58.537Z,2.50
2023-05-05T17:57:25.711Z,2.17
2023-05-05T17:59:53.764Z,2.30
2023-05-05T18:02:21.172Z,2.90
2023-05-05T18:04:50.127Z,2.60
2023-05-05T18:07:17.222Z,3.08
2023-05-05T18:09:44.320Z,2.58
2023-05-05T18:12:11.872Z,2.50
2023-05-05T18:14:39.032Z,2.65
2023-05-05T18:17:06.135Z,2.67
2023-05-05T18:19:33.287Z,2.97
2023-05-05T18:22:00.471Z,2.40
2023-05-05T18:24:28.156Z,2.47
2023-05-05T18:26:55.453Z,2.35
2023-05-05T18:29:22.965Z,2.60
2023-05-05T18:31:52.922Z,3.58
2023-05-05T18:34:20.695Z,3.90
2023-05-05T18:36:48.193Z,3.08
2023-05-05T18:39:15.481Z,4.03
2023-05-05T18:41:42.656Z,3.53
2023-05-05T18:44:10.865Z,3.53
2023-05-05T18:46:38.120Z,3.42
2023-05-05T18:49:05.299Z,3.75
2023-05-05T18:51:32.633Z,2.90
2023-05-05T18:54:00.850Z,2.80
2023-05-05T18:56:28.066Z,2.88
2023-05-05T18:58:55.576Z,3.55
2023-05-05T19:01:23.370Z,2.95
2023-05-05T19:03:50.599Z,3.15
2023-05-05T19:06:18.034Z,5.53
2023-05-05T19:08:45.525Z,3.78
2023-05-05T19:11:14.755Z,2.78
2023-05-05T19:13:41.972Z,2.42
2023-05-05T19:16:10.350Z,2.40
2023-05-05T19:18:37.579Z,2.55
2023-05-05T19:21:04.852Z,2.83
2023-05-05T19:23:32.235Z,3.05
2023-05-05T19:25:59.412Z,4.05
2023-05-05T19:28:26.549Z,5.68
2023-05-05T19:30:53.741Z,4.15
2023-05-05T19:33:20.910Z,2.47
2023-05-05T19:35:47.979Z,2.53
2023-05-05T19:38:15.704Z,2.30
2023-05-05T19:40:43.771Z,2.42
2023-05-05T19:43:11.022Z,2.60
2023-05-05T19:45:38.225Z,2.10
2023-05-05T19:48:05.529Z,2.20
2023-05-05T19:50:32.701Z,2.60
2023-05-05T19:52:59.845Z,2.10
2023-05-05T19:55:30.655Z,2.45
2023-05-05T19:57:57.891Z,2.30
2023-05-05T20:00:25.196Z,2.60
2023-05-05T20:02:52.520Z,3.00
2023-05-05T20:05:19.823Z,3.22
2023-05-05T20:07:47.010Z,3.78
2023-05-05T20:10:14.615Z,3.90
2023-05-05T20:12:47.727Z,4.88
2023-05-05T20:15:18.495Z,3.65
2023-05-05T20:17:46.850Z,3.72
2023-05-05T20:20:17.006Z,3.60
2023-05-05T20:22:44.686Z,3.13
2023-05-05T20:25:12.257Z,4.00
2023-05-05T20:27:39.864Z,3.50
2023-05-05T20:30:08.363Z,4.43
2023-05-05T20:32:35.835Z,3.78
2023-05-05T20:35:04.626Z,4.18
2023-05-05T20:37:31.850Z,5.15
2023-05-05T20:39:59.117Z,15.38
2023-05-05T20:42:27.554Z,37.22
2023-05-05T20:44:54.724Z,9.10
2023-05-05T20:47:21.889Z,7.25
2023-05-05T20:49:49.050Z,7.63
2023-05-05T20:52:16.456Z,7.22
2023-05-05T20:54:43.624Z,4.82
2023-05-05T20:57:10.795Z,6.95
2023-05-05T20:59:38.327Z,6.13
2023-05-05T21:02:05.770Z,6.80
2023-05-05T21:04:33.093Z,7.90
2023-05-05T21:07:00.260Z,7.90
2023-05-05T21:09:27.479Z,9.60
2023-05-05T21:11:54.637Z,10.35
2023-05-05T21:14:22.004Z,11.05
2023-05-05T21:16:49.186Z,11.20
2023-05-05T21:19:16.536Z,12.68
2023-05-05T21:21:44.322Z,14.15
2023-05-05T21:24:12.968Z,11.27
2023-05-05T21:26:44.101Z,11.07
2023-05-05T21:29:11.429Z,11.98
2023-05-05T21:31:38.822Z,11.45
2023-05-05T21:34:06.034Z,11.82
2023-05-05T21:36:33.993Z,11.30
2023-05-05T21:39:01.695Z,12.07
2023-05-05T21:41:28.945Z,12.13
2023-05-05T21:43:56.157Z,14.13
2023-05-05T21:46:23.388Z,16.33
2023-05-05T21:48:50.598Z,17.05
2023-05-05T21:51:17.769Z,18.73
2023-05-05T21:53:44.891Z,18.10
2023-05-05T21:56:12.010Z,16.35
2023-05-05T21:58:41.005Z,18.33
2023-05-05T22:01:08.194Z,17.52
2023-05-05T22:03:35.554Z,16.60
2023-05-05T22:06:02.811Z,16.42
2023-05-05T22:08:29.907Z,16.70
2023-05-05T22:10:56.970Z,16.33
2023-05-05T22:13:24.134Z,15.57
2023-05-05T22:15:51.370Z,15.80
2023-05-05T22:18:18.526Z,14.75
2023-05-05T22:20:46.852Z,16.10
2023-05-05T22:23:14.184Z,15.98
2023-05-05T22:25:41.438Z,16.50
2023-05-05T22:28:08.861Z,17.58
2023-05-05T22:30:36.044Z,17.30
2023-05-05T22:33:03.324Z,16.63
2023-05-05T22:35:30.403Z,16.52
2023-05-05T22:37:57.953Z,15.98
2023-05-05T22:40:25.108Z,14.82
2023-05-05T22:42:52.875Z,14.43
2023-05-05T22:45:20.064Z,14.98
2023-05-05T22:47:47.252Z,14.60
2023-05-05T22:50:14.352Z,14.18
2023-05-05T22:52:41.497Z,15.75
2023-05-05T22:55:09.168Z,16.73
2023-05-05T22:57:36.547Z,17.88
2023-05-05T23:00:05.282Z,17.73
2023-05-05T23:02:32.454Z,17.52
2023-05-05T23:04:59.551Z,16.73
2023-05-05T23:07:26.706Z,16.42
2023-05-05T23:09:54.190Z,15.55
2023-05-05T23:12:21.480Z,16.27
2023-05-05T23:14:49.928Z,15.45
2023-05-05T23:17:17.115Z,16.15
2023-05-05T23:19:47.460Z,14.82
2023-05-05T23:22:14.601Z,13.77
2023-05-05T23:24:41.734Z,12.75
2023-05-05T23:27:08.837Z,14.57
2023-05-05T23:29:35.999Z,14.13
2023-05-05T23:32:03.061Z,13.82
2023-05-05T23:34:30.289Z,14.00
2023-05-05T23:36:57.362Z,16.33
2023-05-05T23:39:24.497Z,15.68
2023-05-05T23:41:51.568Z,15.95
2023-05-05T23:44:18.707Z,16.45
2023-05-05T23:46:45.800Z,16.63
2023-05-05T23:49:12.910Z,18.67
2023-05-05T23:51:39.999Z,22.17
2023-05-05T23:54:07.452Z,23.13
2023-05-05T23:56:34.611Z,25.08
2023-05-05T23:59:01.751Z,27.08
